Time,TemperatureF,DewpointF,PressureIn,WindDirection,WindDirectionDegrees,WindSpeedMPH,WindSpeedGustMPH,Humidity,HourlyPrecipIn,Conditions,Clouds,dailyrainin,SolarRadiationWatts/m^2,SoftwareType,DateUTC
2013-01-30 00:11:00,71.0,69.0,-100.00,South,174,9.0,22.0,94,0.00,,,0.07,0.000000,,2013-01-30 06:11:00,
2013-01-30 00:21:00,71.0,69.0,-100.00,South,174,9.0,22.0,94,0.00,,,0.07,0.000000,,2013-01-30 06:21:00,
2013-01-30 00:32:00,71.0,69.0,-100.00,South,174,9.0,22.0,94,0.00,,,0.07,0.000000,,2013-01-30 06:32:00,
2013-01-30 00:42:00,71.0,69.0,-100.00,South,174,9.0,22.0,94,0.00,,,0.07,0.000000,,2013-01-30 06:42:00,
2013-01-30 00:50:00,71.0,69.0,-100.00,South,175,9.0,27.0,94,0.00,,,0.07,0.000000,,2013-01-30 06:50:00,
2013-01-30 01:11:00,71.0,69.0,-100.00,South,175,9.0,27.0,94,0.00,,,0.07,0.000000,,2013-01-30 07:11:00,
2013-01-30 01:21:00,71.0,69.0,-100.00,South,175,9.0,27.0,94,0.00,,,0.07,0.000000,,2013-01-30 07:21:00,
2013-01-30 01:32:00,71.0,69.0,-100.00,South,175,9.0,27.0,94,0.00,,,0.07,0.000000,,2013-01-30 07:32:00,
2013-01-30 01:41:00,71.0,69.0,-100.00,South,175,9.0,27.0,94,0.00,,,0.07,0.000000,,2013-01-30 07:41:00,
2013-01-30 01:50:00,70.0,68.0,-100.00,South,175,11.0,23.0,95,0.00,,,0.07,0.000000,,2013-01-30 07:50:00,
2013-01-30 02:21:00,70.0,68.0,-100.00,South,175,11.0,23.0,95,0.00,,,0.07,0.000000,,2013-01-30 08:21:00,
2013-01-30 02:32:00,70.0,68.0,-100.00,South,175,11.0,23.0,95,0.00,,,0.07,0.000000,,2013-01-30 08:32:00,
2013-01-30 02:42:00,70.0,68.0,-100.00,South,175,11.0,23.0,95,0.00,,,0.07,0.000000,,2013-01-30 08:42:00,
2013-01-30 02:50:00,70.0,69.0,-100.00,South,171,10.0,20.0,96,0.00,,,0.07,0.000000,,2013-01-30 08:50:00,
2013-01-30 03:11:00,70.0,69.0,-100.00,South,171,10.0,20.0,96,0.00,,,0.07,0.000000,,2013-01-30 09:11:00,
2013-01-30 03:21:00,70.0,69.0,-100.00,South,171,10.0,20.0,96,0.00,,,0.07,0.000000,,2013-01-30 09:21:00,
2013-01-30 03:32:00,70.0,69.0,-100.00,South,171,10.0,20.0,96,0.00,,,0.07,0.000000,,2013-01-30 09:32:00,
2013-01-30 03:42:00,70.0,69.0,-100.00,South,171,10.0,20.0,96,0.00,,,0.07,0.000000,,2013-01-30 09:42:00,
2013-01-30 03:50:00,70.0,69.0,-100.00,South,190,9.0,21.0,96,0.00,,,0.07,0.000000,,2013-01-30 09:50:00,
2013-01-30 04:11:00,70.0,69.0,-100.00,South,190,9.0,21.0,96,0.00,,,0.07,0.000000,,2013-01-30 10:11:00,
2013-01-30 04:21:00,70.0,69.0,-100.00,South,190,9.0,21.0,96,0.00,,,0.07,0.000000,,2013-01-30 10:21:00,
2013-01-30 04:32:00,70.0,69.0,-100.00,South,190,9.0,21.0,96,0.00,,,0.07,0.000000,,2013-01-30 10:32:00,
2013-01-30 04:41:00,70.0,69.0,-100.00,South,190,9.0,21.0,96,0.00,,,0.07,0.000000,,2013-01-30 10:41:00,
2013-01-30 04:50:00,70.0,68.0,-100.00,South,174,9.0,18.0,95,0.00,,,0.07,0.000000,,2013-01-30 10:50:00,
2013-01-30 05:11:00,70.0,68.0,-100.00,South,174,9.0,18.0,95,0.00,,,0.07,0.000000,,2013-01-30 11:11:00,
2013-01-30 05:22:00,70.0,68.0,-100.00,South,174,9.0,18.0,95,0.00,,,0.07,0.000000,,2013-01-30 11:22:00,
2013-01-30 05:33:00,70.0,68.0,-100.00,South,174,9.0,18.0,95,0.00,,,0.07,0.000000,,2013-01-30 11:33:00,
2013-01-30 05:42:00,70.0,68.0,-100.00,South,174,9.0,18.0,95,0.00,,,0.07,0.000000,,2013-01-30 11:42:00,
2013-01-30 06:12:00,70.0,68.0,-100.00,South,180,10.0,23.0,94,0.00,,,0.07,0.000000,,2013-01-30 12:12:00,
2013-01-30 06:22:00,70.0,68.0,-100.00,South,180,10.0,23.0,94,0.00,,,0.07,0.000000,,2013-01-30 12:22:00,
2013-01-30 06:33:00,70.0,68.0,-100.00,South,180,10.0,23.0,94,0.00,,,0.07,0.000000,,2013-01-30 12:33:00,
2013-01-30 06:42:00,70.0,68.0,-100.00,South,180,10.0,23.0,94,0.00,,,0.07,0.000000,,2013-01-30 12:42:00,
2013-01-30 06:50:00,69.0,68.0,-100.00,South,180,11.0,23.0,95,0.00,,,0.07,0.000000,,2013-01-30 12:50:00,
2013-01-30 07:12:00,69.0,68.0,-100.00,South,180,11.0,23.0,95,0.00,,,0.07,0.000000,,2013-01-30 13:12:00,
2013-01-30 07:23:00,69.0,68.0,-100.00,South,180,11.0,23.0,95,0.00,,,0.07,0.000000,,2013-01-30 13:23:00,
2013-01-30 07:33:00,69.0,68.0,-100.00,South,180,11.0,23.0,95,0.00,,,0.07,0.000000,,2013-01-30 13:33:00,
2013-01-30 07:42:00,69.0,68.0,-100.00,South,180,11.0,23.0,95,0.00,,,0.07,0.000000,,2013-01-30 13:42:00,
2013-01-30 07:50:00,70.0,68.0,-100.00,South,191,12.0,28.0,93,0.00,,,0.07,16.000000,,2013-01-30 13:50:00,
2013-01-30 08:23:00,70.0,68.0,-100.00,South,191,12.0,28.0,93,0.00,,,0.07,16.000000,,2013-01-30 14:23:00,
2013-01-30 08:33:00,70.0,68.0,-100.00,South,191,12.0,28.0,93,0.00,,,0.07,16.000000,,2013-01-30 14:33:00,
2013-01-30 08:42:00,70.0,68.0,-100.00,South,191,12.0,28.0,93,0.00,,,0.07,16.000000,,2013-01-30 14:42:00,
2013-01-30 08:50:00,70.0,67.0,-100.00,South,188,15.0,31.0,91,0.00,,,0.07,32.000000,,2013-01-30 14:50:00,
2013-01-30 09:12:00,70.0,67.0,-100.00,South,188,15.0,31.0,91,0.00,,,0.07,32.000000,,2013-01-30 15:12:00,
2013-01-30 09:23:00,70.0,67.0,-100.00,South,188,15.0,31.0,91,0.00,,,0.07,32.000000,,2013-01-30 15:23:00,
2013-01-30 09:33:00,70.0,67.0,-100.00,South,188,15.0,31.0,91,0.00,,,0.07,32.000000,,2013-01-30 15:33:00,
2013-01-30 09:43:00,70.0,67.0,-100.00,South,188,15.0,31.0,91,0.00,,,0.07,32.000000,,2013-01-30 15:43:00,
2013-01-30 09:50:00,62.0,59.0,-100.00,WNW,290,10.0,31.0,91,0.21,,,0.28,31.000000,,2013-01-30 15:50:00,
2013-01-30 10:23:00,62.0,59.0,-100.00,WNW,290,10.0,31.0,91,0.21,,,0.28,31.000000,,2013-01-30 16:23:00,
2013-01-30 10:32:00,62.0,59.0,-100.00,WNW,290,10.0,31.0,91,0.21,,,0.28,31.000000,,2013-01-30 16:32:00,
2013-01-30 10:42:00,62.0,59.0,-100.00,WNW,290,10.0,31.0,91,0.21,,,0.28,31.000000,,2013-01-30 16:42:00,
2013-01-30 10:50:00,55.0,52.0,-100.00,WNW,289,9.0,22.0,90,0.34,,,0.62,25.000000,,2013-01-30 16:50:00,
2013-01-30 11:23:00,55.0,52.0,-100.00,WNW,289,9.0,22.0,90,0.34,,,0.62,25.000000,,2013-01-30 17:23:00,
2013-01-30 11:33:00,55.0,52.0,-100.00,WNW,289,9.0,22.0,90,0.34,,,0.62,25.000000,,2013-01-30 17:33:00,
2013-01-30 11:42:00,55.0,52.0,-100.00,WNW,289,9.0,22.0,90,0.34,,,0.62,25.000000,,2013-01-30 17:42:00,
2013-01-30 11:50:00,53.0,49.0,-100.00,WNW,296,4.0,14.0,87,0.20,,,-99.99,54.000000,,2013-01-30 17:50:00,
2013-01-30 12:12:00,53.0,49.0,-100.00,WNW,296,4.0,14.0,87,0.20,,,-99.99,54.000000,,2013-01-30 18:12:00,
2013-01-30 12:23:00,53.0,49.0,-100.00,WNW,296,4.0,14.0,87,0.20,,,-99.99,54.000000,,2013-01-30 18:23:00,
2013-01-30 12:33:00,53.0,49.0,-100.00,WNW,296,4.0,14.0,87,0.20,,,-99.99,54.000000,,2013-01-30 18:33:00,
2013-01-30 12:42:00,53.0,49.0,-100.00,WNW,296,4.0,14.0,87,0.20,,,-99.99,54.000000,,2013-01-30 18:42:00,
2013-01-30 12:50:00,54.0,51.0,-100.00,West,272,3.0,8.0,90,0.01,,,0.83,99.000000,,2013-01-30 18:50:00,
2013-01-30 13:12:00,54.0,51.0,-100.00,West,272,3.0,8.0,90,0.01,,,0.83,99.000000,,2013-01-30 19:12:00,
2013-01-30 13:22:00,54.0,51.0,-100.00,West,272,3.0,8.0,90,0.01,,,0.83,99.000000,,2013-01-30 19:22:00,
2013-01-30 13:32:00,54.0,51.0,-100.00,West,272,3.0,8.0,90,0.01,,,0.83,99.000000,,2013-01-30 19:32:00,
2013-01-30 13:43:00,54.0,51.0,-100.00,West,272,3.0,8.0,90,0.01,,,0.83,99.000000,,2013-01-30 19:43:00,
2013-01-30 13:50:00,56.0,53.0,-100.00,West,264,6.0,12.0,90,0.01,,,0.84,188.000000,,2013-01-30 19:50:00,
2013-01-30 14:12:00,56.0,53.0,-100.00,West,264,6.0,12.0,90,0.01,,,0.84,188.000000,,2013-01-30 20:12:00,
2013-01-30 14:22:00,56.0,53.0,-100.00,West,264,6.0,12.0,90,0.01,,,0.84,188.000000,,2013-01-30 20:22:00,
2013-01-30 14:33:00,56.0,53.0,-100.00,West,264,6.0,12.0,90,0.01,,,0.84,188.000000,,2013-01-30 20:33:00,
2013-01-30 14:42:00,56.0,53.0,-100.00,West,264,6.0,12.0,90,0.01,,,0.84,188.000000,,2013-01-30 20:42:00,
2013-01-30 14:50:00,56.0,52.0,-100.00,WSW,257,7.0,15.0,87,0.02,,,0.84,85.000000,,2013-01-30 20:50:00,
2013-01-30 15:23:00,56.0,52.0,-100.00,WSW,257,7.0,15.0,87,0.02,,,0.84,85.000000,,2013-01-30 21:23:00,
2013-01-30 15:32:00,56.0,52.0,-100.00,WSW,257,7.0,15.0,87,0.02,,,0.84,85.000000,,2013-01-30 21:32:00,
2013-01-30 15:42:00,56.0,52.0,-100.00,WSW,257,7.0,15.0,87,0.02,,,0.84,85.000000,,2013-01-30 21:42:00,
2013-01-30 15:50:00,57.0,52.0,-100.00,West,262,8.0,14.0,82,0.00,,,0.80,78.000000,,2013-01-30 21:50:00,
2013-01-30 16:12:00,57.0,52.0,-100.00,West,262,8.0,14.0,82,0.00,,,0.80,78.000000,,2013-01-30 22:12:00,
2013-01-30 16:22:00,57.0,52.0,-100.00,West,262,8.0,14.0,82,0.00,,,0.80,78.000000,,2013-01-30 22:22:00,
2013-01-30 16:32:00,57.0,52.0,-100.00,West,262,8.0,14.0,82,0.00,,,0.80,78.000000,,2013-01-30 22:32:00,
2013-01-30 16:42:00,57.0,52.0,-100.00,West,262,8.0,14.0,82,0.00,,,0.80,78.000000,,2013-01-30 22:42:00,
2013-01-30 16:50:00,57.0,42.0,-100.00,West,272,9.0,18.0,58,0.00,,,0.80,57.000000,,2013-01-30 22:50:00,
2013-01-30 17:22:00,57.0,42.0,-100.00,West,272,9.0,18.0,58,0.00,,,0.80,57.000000,,2013-01-30 23:22:00,
2013-01-30 17:32:00,57.0,42.0,-100.00,West,272,9.0,18.0,58,0.00,,,0.80,57.000000,,2013-01-30 23:32:00,
2013-01-30 17:42:00,57.0,42.0,-100.00,West,272,9.0,18.0,58,0.00,,,0.80,57.000000,,2013-01-30 23:42:00,
2013-01-30 17:50:00,55.0,35.0,-100.00,WNW,295,9.0,23.0,47,0.00,,,0.80,31.000000,,2013-01-30 23:50:00,
2013-01-30 18:22:00,55.0,35.0,-100.00,WNW,295,9.0,23.0,47,0.00,,,0.80,31.000000,,2013-01-31 00:22:00,
2013-01-30 18:32:00,55.0,35.0,-100.00,WNW,295,9.0,23.0,47,0.00,,,0.80,31.000000,,2013-01-31 00:32:00,
2013-01-30 18:42:00,55.0,35.0,-100.00,WNW,295,9.0,23.0,47,0.00,,,0.80,31.000000,,2013-01-31 00:42:00,
2013-01-30 18:50:00,52.0,36.0,-100.00,WNW,292,6.0,13.0,54,0.00,,,0.80,0.000000,,2013-01-31 00:50:00,
2013-01-30 19:12:00,52.0,36.0,-100.00,WNW,292,6.0,13.0,54,0.00,,,0.80,0.000000,,2013-01-31 01:12:00,
2013-01-30 19:21:00,52.0,36.0,-100.00,WNW,292,6.0,13.0,54,0.00,,,0.80,0.000000,,2013-01-31 01:21:00,
2013-01-30 19:32:00,52.0,36.0,-100.00,WNW,292,6.0,13.0,54,0.00,,,0.80,0.000000,,2013-01-31 01:32:00,
2013-01-30 19:42:00,52.0,36.0,-100.00,WNW,292,6.0,13.0,54,0.00,,,0.80,0.000000,,2013-01-31 01:42:00,
2013-01-30 19:50:00,52.0,35.0,-100.00,WNW,302,11.0,18.0,53,0.00,,,0.79,0.000000,,2013-01-31 01:50:00,
2013-01-30 20:21:00,52.0,35.0,-100.00,WNW,302,11.0,18.0,53,0.00,,,0.79,0.000000,,2013-01-31 02:21:00,
2013-01-30 20:32:00,52.0,35.0,-100.00,WNW,302,11.0,18.0,53,0.00,,,0.79,0.000000,,2013-01-31 02:32:00,
2013-01-30 20:42:00,52.0,35.0,-100.00,WNW,302,11.0,18.0,53,0.00,,,0.79,0.000000,,2013-01-31 02:42:00,
2013-01-30 20:50:00,49.0,32.0,-100.00,NW,309,12.0,23.0,52,0.00,,,0.79,0.000000,,2013-01-31 02:50:00,
2013-01-30 21:11:00,49.0,32.0,-100.00,NW,309,12.0,23.0,52,0.00,,,0.79,0.000000,,2013-01-31 03:11:00,
2013-01-30 21:21:00,49.0,32.0,-100.00,NW,309,12.0,23.0,52,0.00,,,0.79,0.000000,,2013-01-31 03:21:00,
2013-01-30 21:32:00,49.0,32.0,-100.00,NW,309,12.0,23.0,52,0.00,,,0.79,0.000000,,2013-01-31 03:32:00,
2013-01-30 21:41:00,49.0,32.0,-100.00,NW,309,12.0,23.0,52,0.00,,,0.79,0.000000,,2013-01-31 03:41:00,
2013-01-30 21:50:00,46.0,28.0,-100.00,NW,318,10.0,32.0,50,0.00,,,0.79,0.000000,,2013-01-31 03:50:00,
2013-01-30 22:22:00,46.0,28.0,-100.00,NW,318,10.0,32.0,50,0.00,,,0.79,0.000000,,2013-01-31 04:22:00,
2013-01-30 22:32:00,46.0,28.0,-100.00,NW,318,10.0,32.0,50,0.00,,,0.79,0.000000,,2013-01-31 04:32:00,
2013-01-30 22:41:00,46.0,28.0,-100.00,NW,318,10.0,32.0,50,0.00,,,0.79,0.000000,,2013-01-31 04:41:00,
2013-01-30 22:50:00,44.0,29.0,-100.00,NW,319,7.0,20.0,55,0.00,,,0.79,0.000000,,2013-01-31 04:50:00,
2013-01-30 23:11:00,44.0,29.0,-100.00,NW,319,7.0,20.0,55,0.00,,,0.79,0.000000,,2013-01-31 05:11:00,
2013-01-30 23:22:00,44.0,29.0,-100.00,NW,319,7.0,20.0,55,0.00,,,0.79,0.000000,,2013-01-31 05:22:00,
2013-01-30 23:32:00,44.0,29.0,-100.00,NW,319,7.0,20.0,55,0.00,,,0.79,0.000000,,2013-01-31 05:32:00,
2013-01-30 23:41:00,44.0,29.0,-100.00,NW,319,7.0,20.0,55,0.00,,,0.79,0.000000,,2013-01-31 05:41:00,